Time;durP1;ratioP1;P1;durP2;ratioP2;P2;SDS_P1;SDS_P2;PMS_P1;PMS_P2;Temp;Humidity;BMP_temperature;BMP_pressure;BME280_temperature;BME280_humidity;BME280_pressure;Samples;Min_cycle;Max_cycle;Signal;HPM_P1;HPM_P2
2024/01/03 00:01:38;;;;;;;0.08;0.00;;;;;;;10.90;80.24;98116.50;10422120;28;20036;-81
2024/01/03 00:06:40;;;;;;;0.00;0.00;;;;;;;10.79;80.92;98138.81;10411173;28;20170;-81
2024/01/03 00:11:42;;;;;;;1.33;0.25;;;;;;;10.53;81.03;98129.31;10454253;28;20152;-83
2024/01/03 00:16:44;;;;;;;0.68;0.15;;;;;;;10.43;81.44;98123.69;10453008;28;20480;-82
2024/01/03 00:21:45;;;;;;;0.10;0.00;;;;;;;10.40;80.95;98142.94;10437606;28;20425;-82
2024/01/03 00:26:47;;;;;;;0.00;0.00;;;;;;;10.46;81.17;98145.50;10468414;28;20048;-81
2024/01/03 00:31:49;;;;;;;1.35;0.08;;;;;;;10.44;81.06;98158.34;10448328;28;20509;-82
2024/01/03 00:36:55;;;;;;;1.08;0.00;;;;;;;10.45;80.85;98151.94;10461317;28;20677;-81
2024/01/03 00:41:57;;;;;;;1.98;0.10;;;;;;;10.44;81.13;98152.97;10467201;28;20098;-84
2024/01/03 00:46:59;;;;;;;0.73;0.10;;;;;;;10.44;80.61;98155.66;10446808;28;20049;-84
2024/01/03 00:52:01;;;;;;;1.55;0.05;;;;;;;10.48;80.49;98164.91;10466490;28;20124;-84
2024/01/03 00:57:04;;;;;;;2.47;0.10;;;;;;;10.44;80.58;98169.09;10451616;28;20045;-84
2024/01/03 01:02:06;;;;;;;0.63;0.17;;;;;;;10.47;80.41;98173.22;10446111;28;20049;-84
2024/01/03 01:07:09;;;;;;;0.00;0.00;;;;;;;10.53;80.44;98177.66;10418855;28;20106;-84
2024/01/03 01:12:11;;;;;;;0.45;0.30;;;;;;;10.64;80.65;98184.94;10436464;28;20060;-84
2024/01/03 01:17:13;;;;;;;0.20;0.03;;;;;;;10.74;80.36;98196.97;10448794;28;20693;-83
2024/01/03 01:22:14;;;;;;;0.10;0.00;;;;;;;10.67;80.55;98192.53;10446268;28;20049;-84
2024/01/03 01:27:16;;;;;;;4.82;0.50;;;;;;;10.73;81.17;98206.91;10459124;28;20120;-83
2024/01/03 01:32:18;;;;;;;2.90;0.20;;;;;;;10.76;81.01;98206.44;10467598;28;20047;-84
2024/01/03 01:37:19;;;;;;;0.10;0.03;;;;;;;10.75;80.54;98206.69;10439754;28;20052;-84
2024/01/03 01:42:22;;;;;;;5.13;0.10;;;;;;;10.74;80.89;98213.91;10446530;28;20053;-84
2024/01/03 01:47:25;;;;;;;1.13;0.20;;;;;;;10.83;80.88;98220.59;10446889;28;20045;-85
2024/01/03 01:52:27;;;;;;;0.20;0.10;;;;;;;10.83;80.79;98225.97;10447311;28;20502;-82
2024/01/03 01:57:31;;;;;;;0.90;0.45;;;;;;;10.80;80.74;98230.97;10449629;28;20049;-82
2024/01/03 02:02:35;;;;;;;2.97;0.10;;;;;;;10.76;81.26;98235.19;10464461;28;20080;-82
2024/01/03 02:07:37;;;;;;;0.40;0.10;;;;;;;10.70;80.61;98231.53;10443521;28;20131;-82
2024/01/03 02:12:38;;;;;;;1.92;0.13;;;;;;;10.59;80.50;98222.41;10439199;28;20045;-82
2024/01/03 02:17:41;;;;;;;1.08;0.10;;;;;;;10.52;80.57;98225.19;10441113;28;20037;-82
2024/01/03 02:22:43;;;;;;;2.05;0.10;;;;;;;10.47;80.75;98219.69;10458736;28;20055;-82
2024/01/03 02:27:45;;;;;;;2.85;0.15;;;;;;;10.44;80.51;98216.63;10460223;28;20056;-82
2024/01/03 02:32:46;;;;;;;0.20;0.10;;;;;;;10.51;80.50;98217.38;10451262;28;20040;-82
2024/01/03 02:37:48;;;;;;;0.38;0.10;;;;;;;10.53;80.80;98226.00;10466111;28;20478;-82
2024/01/03 02:42:49;;;;;;;1.05;0.35;;;;;;;10.52;80.50;98235.94;10446392;28;20119;-82
2024/01/03 02:47:51;;;;;;;3.72;0.10;;;;;;;10.50;80.66;98232.66;10469166;28;20407;-82
2024/01/03 02:52:53;;;;;;;0.70;0.30;;;;;;;10.48;80.38;98234.72;10453051;28;20048;-82
2024/01/03 02:57:54;;;;;;;2.42;0.20;;;;;;;10.56;80.17;98241.66;10473071;28;20132;-82
2024/01/03 03:02:56;;;;;;;1.58;0.10;;;;;;;10.61;79.92;98232.94;10473005;28;20064;-83
2024/01/03 03:07:58;;;;;;;1.65;0.10;;;;;;;10.67;79.99;98242.75;10454425;28;20063;-84
2024/01/03 03:12:59;;;;;;;2.15;0.20;;;;;;;10.66;79.81;98241.09;10461230;28;20040;-84
2024/01/03 03:18:01;;;;;;;0.60;0.10;;;;;;;10.67;80.03;98235.50;10471040;28;20036;-84
2024/01/03 03:23:03;;;;;;;2.00;0.20;;;;;;;10.64;80.12;98235.16;10434662;28;20041;-84
2024/01/03 03:28:07;;;;;;;4.97;0.20;;;;;;;10.57;79.54;98229.88;10450683;28;20049;-83
2024/01/03 03:33:10;;;;;;;4.75;1.05;;;;;;;10.55;79.75;98225.78;10452512;28;20040;-84
2024/01/03 03:38:12;;;;;;;7.93;0.47;;;;;;;10.52;79.45;98222.50;10441558;28;20144;-83
2024/01/03 03:43:13;;;;;;;6.13;0.20;;;;;;;10.54;79.55;98222.25;10442319;28;20102;-83
2024/01/03 03:48:15;;;;;;;2.58;0.20;;;;;;;10.60;79.46;98234.78;10451910;28;20066;-83
2024/01/03 03:53:17;;;;;;;5.30;0.25;;;;;;;10.64;79.43;98227.94;10454527;28;20044;-82
2024/01/03 03:58:19;;;;;;;4.57;0.28;;;;;;;10.71;79.35;98227.81;10468506;28;20132;-83
2024/01/03 04:03:21;;;;;;;6.30;0.30;;;;;;;10.70;78.91;98235.06;10457202;28;20062;-83
2024/01/03 04:08:23;;;;;;;3.65;0.30;;;;;;;10.71;79.10;98234.00;10462740;28;20644;-83
2024/01/03 04:13:25;;;;;;;5.25;0.50;;;;;;;10.73;78.50;98252.59;10453689;28;20052;-83
2024/01/03 04:18:27;;;;;;;3.70;0.25;;;;;;;10.76;78.61;98259.38;10449438;28;20048;-83
2024/01/03 04:23:29;;;;;;;4.43;0.35;;;;;;;10.70;78.79;98251.19;10432839;28;20041;-83
2024/01/03 04:28:31;;;;;;;7.80;0.55;;;;;;;10.61;78.61;98251.75;10446535;28;20043;-83
2024/01/03 04:33:32;;;;;;;6.07;0.30;;;;;;;10.60;78.32;98263.53;10456634;28;20303;-83
2024/01/03 04:38:34;;;;;;;3.15;0.30;;;;;;;10.58;78.55;98271.00;10465578;28;20498;-83
2024/01/03 04:43:36;;;;;;;2.70;0.85;;;;;;;10.51;78.25;98261.16;10449492;28;20045;-83
2024/01/03 04:48:37;;;;;;;1.80;0.20;;;;;;;10.49;78.43;98265.13;10462084;28;20128;-83
2024/01/03 04:53:39;;;;;;;1.95;0.30;;;;;;;10.43;78.23;98271.41;10462071;28;20120;-83
2024/01/03 04:58:41;;;;;;;1.48;0.30;;;;;;;10.39;78.33;98271.03;10466043;28;20121;-84
2024/01/03 05:03:42;;;;;;;7.65;0.70;;;;;;;10.44;78.46;98287.28;10463976;28;20098;-84
2024/01/03 05:08:44;;;;;;;9.25;0.25;;;;;;;10.54;78.40;98280.56;10444259;28;20032;-84
2024/01/03 05:13:45;;;;;;;5.50;0.30;;;;;;;10.60;78.24;98271.59;10431909;28;20502;-83
2024/01/03 05:18:48;;;;;;;8.80;0.50;;;;;;;10.73;78.22;98278.66;10446196;28;20052;-82
2024/01/03 05:23:50;;;;;;;6.03;0.30;;;;;;;10.85;78.06;98272.25;10478750;28;20053;-82
2024/01/03 05:28:52;;;;;;;3.17;0.50;;;;;;;11.02;77.50;98277.81;10484593;28;20117;-82
2024/01/03 05:33:53;;;;;;;9.30;0.68;;;;;;;11.10;77.59;98277.47;10455393;28;20074;-83
2024/01/03 05:38:55;;;;;;;4.93;1.02;;;;;;;11.14;77.26;98261.69;10497058;28;20044;-83
2024/01/03 05:43:57;;;;;;;8.68;1.75;;;;;;;11.04;77.70;98270.31;10497747;28;20021;-83
2024/01/03 05:48:59;;;;;;;6.07;0.57;;;;;;;11.01;77.57;98281.53;10483907;28;20108;-83
2024/01/03 05:54:01;;;;;;;8.57;0.45;;;;;;;10.73;78.38;98274.09;10491648;28;20049;-83
2024/01/03 05:59:02;;;;;;;8.38;0.40;;;;;;;10.65;78.75;98290.53;10451799;28;20169;-84
2024/01/03 06:04:04;;;;;;;4.88;1.13;;;;;;;10.68;78.19;98282.84;10460470;28;20048;-84
2024/01/03 06:09:05;;;;;;;5.82;0.30;;;;;;;10.78;78.25;98290.38;10460904;28;20098;-84
2024/01/03 06:14:07;;;;;;;4.70;0.80;;;;;;;10.82;77.93;98283.47;10471119;28;20103;-84
2024/01/03 06:19:08;;;;;;;6.90;0.25;;;;;;;10.88;77.84;98285.25;10471706;28;20438;-83
2024/01/03 06:24:10;;;;;;;6.63;0.50;;;;;;;10.85;77.96;98274.13;10446127;28;20049;-84
2024/01/03 06:29:12;;;;;;;21.30;4.07;;;;;;;10.93;77.72;98281.06;10466419;28;20045;-84
2024/01/03 06:34:13;;;;;;;7.25;1.08;;;;;;;11.06;77.14;98287.06;10460468;28;20056;-83
2024/01/03 06:39:15;;;;;;;7.47;0.43;;;;;;;11.07;76.99;98271.72;10455930;28;20099;-82
2024/01/03 06:44:17;;;;;;;9.25;1.00;;;;;;;11.10;77.10;98282.84;10457712;28;20041;-82
2024/01/03 06:49:18;;;;;;;10.27;1.30;;;;;;;11.22;76.43;98284.75;10460973;28;20033;-81
2024/01/03 06:54:21;;;;;;;10.88;0.95;;;;;;;11.31;75.70;98281.50;10454886;28;20048;-81
2024/01/03 06:59:22;;;;;;;10.88;1.02;;;;;;;11.45;75.73;98286.63;10464047;28;20036;-81
2024/01/03 07:04:25;;;;;;;10.85;1.73;;;;;;;11.50;75.45;98276.00;10461549;28;20036;-81
2024/01/03 07:09:27;;;;;;;12.88;0.47;;;;;;;11.45;75.61;98281.25;10454040;28;20048;-81
2024/01/03 07:14:29;;;;;;;6.88;0.70;;;;;;;11.43;75.30;98294.13;10451165;28;20057;-83
2024/01/03 07:19:30;;;;;;;3.90;0.57;;;;;;;11.45;75.67;98302.78;10456807;28;20048;-82
2024/01/03 07:24:32;;;;;;;8.48;0.30;;;;;;;11.55;75.19;98311.09;10478245;28;20496;-88
2024/01/03 07:29:33;;;;;;;8.20;1.75;;;;;;;11.58;74.71;98307.94;10479968;28;20073;-89
2024/01/03 07:34:35;;;;;;;3.38;0.35;;;;;;;11.32;75.37;98319.97;10467578;28;20045;-89
2024/01/03 07:39:37;;;;;;;7.10;0.43;;;;;;;11.32;75.84;98319.97;10482490;28;20037;-89
2024/01/03 07:44:42;;;;;;;9.85;1.00;;;;;;;11.11;76.03;98307.84;10460545;28;20041;-89
2024/01/03 07:49:44;;;;;;;1.73;0.30;;;;;;;10.90;76.70;98312.72;10472773;28;20044;-89
2024/01/03 07:54:45;;;;;;;7.43;0.77;;;;;;;10.96;76.47;98308.31;10468179;28;20079;-89
2024/01/03 07:59:47;;;;;;;6.03;1.00;;;;;;;10.99;76.00;98326.66;10500129;28;20036;-89
2024/01/03 08:04:49;;;;;;;8.45;0.60;;;;;;;10.88;76.47;98328.25;10484761;28;20973;-89
2024/01/03 08:09:50;;;;;;;3.20;0.57;;;;;;;10.79;77.00;98320.72;10496658;28;20041;-89
2024/01/03 08:14:52;;;;;;;7.95;0.80;;;;;;;10.74;77.46;98318.72;10457225;28;20067;-90
2024/01/03 08:19:54;;;;;;;8.77;0.70;;;;;;;10.50;78.14;98320.47;10401357;23;20062;-87
2024/01/03 08:24:56;;;;;;;6.03;1.75;;;;;;;10.58;77.82;98313.97;10414134;23;20129;-66
2024/01/03 08:29:58;;;;;;;8.07;0.57;;;;;;;10.50;78.49;98310.56;10481941;28;20049;-64
2024/01/03 08:34:59;;;;;;;6.00;1.10;;;;;;;10.57;78.13;98301.59;10474219;28;20057;-64
2024/01/03 08:40:01;;;;;;;6.28;0.45;;;;;;;10.55;78.59;98309.06;10417154;28;20052;-63
2024/01/03 08:45:03;;;;;;;6.78;1.10;;;;;;;10.58;78.87;98301.34;10410139;28;20078;-65
2024/01/03 08:50:05;;;;;;;4.25;0.30;;;;;;;10.67;78.75;98294.63;10396036;28;20571;-65
2024/01/03 08:55:07;;;;;;;8.02;0.30;;;;;;;10.76;78.61;98280.88;10410847;28;20088;-65
2024/01/03 09:00:08;;;;;;;4.60;0.20;;;;;;;10.91;78.09;98290.16;10379977;28;20543;-67
2024/01/03 09:05:10;;;;;;;6.05;0.30;;;;;;;11.07;78.07;98283.28;10379580;28;20560;-67
2024/01/03 09:10:12;;;;;;;4.38;0.30;;;;;;;11.21;78.28;98283.09;10380991;28;20396;-68
2024/01/03 09:15:14;;;;;;;1.60;0.20;;;;;;;11.26;78.26;98286.72;10384463;28;20073;-68
2024/01/03 09:20:15;;;;;;;9.75;0.68;;;;;;;11.40;77.85;98287.34;10381246;28;20405;-67
2024/01/03 09:25:17;;;;;;;5.07;0.40;;;;;;;11.48;77.41;98288.88;10381889;28;21529;-65
2024/01/03 09:30:18;;;;;;;4.72;0.20;;;;;;;11.56;76.90;98293.09;10381481;28;20096;-68
2024/01/03 09:35:20;;;;;;;1.20;0.20;;;;;;;11.55;76.98;98291.44;10382614;28;20798;-68
2024/01/03 09:40:21;;;;;;;1.17;0.13;;;;;;;11.63;76.85;98296.47;10384236;28;20134;-69
2024/01/03 09:45:23;;;;;;;2.97;0.47;;;;;;;11.77;76.61;98302.44;10380546;28;20140;-67
2024/01/03 09:50:25;;;;;;;4.20;0.22;;;;;;;11.83;76.56;98305.03;10374042;28;20049;-70
2024/01/03 09:55:29;;;;;;;4.60;0.20;;;;;;;11.88;75.97;98301.63;10369380;28;20099;-70
2024/01/03 10:00:31;;;;;;;7.25;0.80;;;;;;;12.01;76.00;98303.28;10379971;28;20045;-70
2024/01/03 10:05:32;;;;;;;1.92;1.00;;;;;;;12.14;75.27;98313.78;10384239;28;20040;-69
2024/01/03 10:10:34;;;;;;;3.30;0.55;;;;;;;12.25;75.33;98315.66;10388465;28;20286;-63
2024/01/03 10:15:37;;;;;;;5.10;0.30;;;;;;;12.33;74.87;98329.81;10390997;28;20046;-63
2024/01/03 10:20:39;;;;;;;2.00;0.47;;;;;;;12.49;74.24;98329.06;10395289;28;20049;-66
2024/01/03 10:25:42;;;;;;;4.90;0.60;;;;;;;12.58;73.78;98324.97;10388575;28;20054;-64
2024/01/03 10:30:50;;;;;;;3.38;0.20;;;;;;;12.73;72.87;98337.09;10398987;23;20538;-86
2024/01/03 10:35:52;;;;;;;2.40;0.10;;;;;;;12.81;72.25;98337.50;10481976;28;20045;-84
2024/01/03 10:40:55;;;;;;;2.38;0.60;;;;;;;12.87;71.41;98331.19;10460303;28;20116;-90
2024/01/03 10:45:59;;;;;;;5.00;0.47;;;;;;;12.99;70.74;98333.00;10498177;28;20072;-90
2024/01/03 10:51:13;;;;;;;4.60;1.17;;;;;;;12.99;69.73;98327.59;10495237;28;20609;-88
2024/01/03 10:56:16;;;;;;;2.28;0.65;;;;;;;13.03;68.27;98328.75;10479414;28;20048;-86
2024/01/03 11:01:32;;;;;;;2.08;0.17;;;;;;;13.17;68.22;98326.56;10459596;28;20068;-86
2024/01/03 11:06:44;;;;;;;1.50;0.40;;;;;;;13.19;67.54;98322.59;10490910;28;20048;-86
2024/01/03 11:11:46;;;;;;;2.85;0.30;;;;;;;13.23;66.71;98325.59;10501629;28;20041;-85
2024/01/03 11:16:48;;;;;;;2.90;0.30;;;;;;;13.38;66.78;98336.69;10488596;28;20067;-85
2024/01/03 11:21:50;;;;;;;3.72;0.20;;;;;;;13.56;66.22;98338.34;10492328;28;20246;-89
2024/01/03 11:26:52;;;;;;;3.35;0.20;;;;;;;13.74;66.10;98339.16;10453124;28;20425;-89
2024/01/03 11:32:02;;;;;;;2.42;0.30;;;;;;;13.81;64.82;98332.53;10456160;28;20037;-89
2024/01/03 11:37:05;;;;;;;3.72;0.82;;;;;;;13.99;64.91;98342.25;10414789;28;20053;-90
2024/01/03 11:42:08;;;;;;;4.15;0.25;;;;;;;14.15;63.50;98337.88;10407354;28;20073;-87
2024/01/03 11:47:11;;;;;;;1.25;0.10;;;;;;;14.10;63.41;98343.22;10394899;28;20049;-87
2024/01/03 11:52:13;;;;;;;6.43;0.30;;;;;;;14.12;62.58;98327.56;10405220;28;20045;-86
2024/01/03 11:57:20;;;;;;;5.10;0.20;;;;;;;14.25;61.82;98318.28;10400918;28;20496;-87
2024/01/03 12:02:21;;;;;;;3.80;0.40;;;;;;;14.27;62.17;98321.53;10398722;23;20078;-69
2024/01/03 12:07:23;;;;;;;4.20;0.50;;;;;;;14.27;62.18;98326.94;10358034;28;20046;-65
2024/01/03 12:12:25;;;;;;;4.45;0.30;;;;;;;14.31;61.80;98316.47;10383943;28;20054;-68
2024/01/03 12:17:28;;;;;;;6.03;1.02;;;;;;;14.35;61.74;98312.19;10379553;28;20033;-68
2024/01/03 12:22:30;;;;;;;6.38;0.60;;;;;;;14.48;61.81;98306.41;10398627;28;20096;-67
2024/01/03 12:27:33;;;;;;;4.07;1.02;;;;;;;14.47;60.72;98299.34;10395256;28;20025;-65
2024/01/03 12:32:35;;;;;;;4.78;0.43;;;;;;;14.60;60.55;98298.19;10459532;28;20044;-64
2024/01/03 12:37:40;;;;;;;3.88;0.35;;;;;;;14.68;60.68;98298.56;10431136;28;20126;-65
2024/01/03 12:42:42;;;;;;;7.22;0.65;;;;;;;14.58;61.27;98298.44;10392536;28;20057;-65
2024/01/03 12:47:44;;;;;;;4.63;0.75;;;;;;;14.51;61.12;98300.50;10395557;28;20076;-65
2024/01/03 12:52:45;;;;;;;4.05;0.30;;;;;;;14.51;61.23;98278.84;10361643;28;21082;-66
2024/01/03 12:57:47;;;;;;;5.22;0.85;;;;;;;14.35;61.45;98287.88;10374447;28;20030;-64
2024/01/03 13:02:48;;;;;;;4.32;0.30;;;;;;;14.24;61.36;98293.16;10383088;28;20052;-64
2024/01/03 13:07:50;;;;;;;4.60;0.40;;;;;;;14.22;61.72;98295.28;10380644;28;20098;-63
2024/01/03 13:12:51;;;;;;;3.90;0.30;;;;;;;14.13;62.21;98304.88;10398551;28;20038;-64
2024/01/03 13:17:53;;;;;;;4.72;0.28;;;;;;;14.07;62.35;98298.59;10388009;28;20042;-64
2024/01/03 13:22:55;;;;;;;4.85;0.40;;;;;;;14.00;62.63;98297.13;10382190;28;20048;-64
2024/01/03 13:27:56;;;;;;;2.72;0.30;;;;;;;13.67;63.70;98296.13;10394054;28;20030;-64
2024/01/03 13:32:57;;;;;;;8.20;0.52;;;;;;;13.18;65.02;98288.56;10388028;28;20270;-63
2024/01/03 13:38:01;;;;;;;24.33;1.13;;;;;;;13.19;65.20;98289.38;10385057;28;20037;-63
2024/01/03 13:43:03;;;;;;;6.43;0.40;;;;;;;13.23;65.25;98280.56;10378397;28;20046;-64
2024/01/03 13:48:05;;;;;;;6.78;0.40;;;;;;;12.77;66.58;98287.84;10379438;28;20328;-62
2024/01/03 13:53:07;;;;;;;1.63;0.50;;;;;;;12.34;67.93;98299.94;10369787;28;20038;-65
2024/01/03 13:58:09;;;;;;;2.45;0.30;;;;;;;11.77;70.06;98278.22;10388912;28;20049;-66
2024/01/03 14:03:11;;;;;;;8.63;0.65;;;;;;;11.77;70.42;98267.44;10428558;23;20056;-86
2024/01/03 14:08:13;;;;;;;7.47;0.50;;;;;;;11.85;70.77;98256.34;10403168;28;20047;-88
2024/01/03 14:13:15;;;;;;;6.22;0.50;;;;;;;11.98;70.52;98245.31;10894338;22;20080;-86
2024/01/03 14:18:35;;;;;;;6.80;0.28;;;;;;;12.02;70.76;98249.19;11864016;23;20054;-88
2024/01/03 14:23:38;;;;;;;3.90;0.55;;;;;;;12.12;70.49;98250.44;10616606;23;20029;-68
2024/01/03 14:28:40;;;;;;;4.97;0.40;;;;;;;12.24;70.62;98248.53;10417793;28;20037;-67
2024/01/03 14:33:41;;;;;;;2.55;0.45;;;;;;;12.33;70.12;98255.19;10422503;28;20042;-67
2024/01/03 14:38:43;;;;;;;3.47;0.38;;;;;;;12.44;69.93;98259.75;10425729;28;20096;-68
2024/01/03 14:43:47;;;;;;;6.20;0.30;;;;;;;12.50;69.84;98253.38;10464152;28;20318;-69
2024/01/03 14:48:48;;;;;;;2.45;0.30;;;;;;;12.58;69.66;98251.34;10460160;28;20029;-67
2024/01/03 14:53:52;;;;;;;5.03;0.30;;;;;;;12.63;69.01;98264.94;10464866;28;20040;-67
2024/01/03 14:58:53;;;;;;;0.90;0.10;;;;;;;12.26;69.49;98282.28;10481115;28;20070;-69
2024/01/03 15:03:55;;;;;;;2.60;0.28;;;;;;;11.82;70.77;98268.38;10466795;28;20033;-68
2024/01/03 15:08:56;;;;;;;2.83;0.17;;;;;;;11.79;70.09;98271.56;10475561;28;20032;-68
2024/01/03 15:13:58;;;;;;;0.70;0.13;;;;;;;11.81;70.10;98269.44;10464863;28;20029;-68
2024/01/03 15:18:59;;;;;;;1.30;0.10;;;;;;;11.89;70.19;98252.97;10476638;28;20439;-68
2024/01/03 15:24:03;;;;;;;3.80;0.13;;;;;;;11.71;70.32;98259.28;10480903;28;20043;-67
2024/01/03 15:29:11;;;;;;;1.98;0.20;;;;;;;11.38;71.20;98259.03;10458302;28;20044;-69
2024/01/03 15:34:12;;;;;;;1.50;0.43;;;;;;;11.34;71.83;98255.19;10448416;28;20087;-68
2024/01/03 15:39:14;;;;;;;1.60;0.13;;;;;;;11.36;71.71;98255.75;10469960;28;20021;-67
2024/01/03 15:44:15;;;;;;;3.13;0.30;;;;;;;11.33;71.52;98248.97;10475710;28;20037;-68
2024/01/03 15:49:18;;;;;;;2.25;0.28;;;;;;;11.39;70.77;98250.72;10474577;28;20059;-68
2024/01/03 15:54:19;;;;;;;2.80;0.30;;;;;;;11.43;71.20;98208.88;10468801;28;20036;-69
2024/01/03 15:59:37;;;;;;;1.88;0.10;;;;;;;11.47;70.55;98199.28;10431441;28;20049;-70
2024/01/03 16:04:38;;;;;;;0.40;0.25;;;;;;;11.53;70.58;98210.94;10416905;28;20065;-71
2024/01/03 16:09:40;;;;;;;2.25;0.10;;;;;;;11.60;70.40;98200.88;10417174;28;20048;-69
2024/01/03 16:14:43;;;;;;;1.08;0.30;;;;;;;11.65;69.86;98184.84;10414387;28;20065;-69
2024/01/03 16:19:45;;;;;;;2.05;0.10;;;;;;;11.68;69.82;98192.44;10416321;28;20069;-70
2024/01/03 16:24:46;;;;;;;1.70;0.10;;;;;;;11.68;69.88;98197.81;10419158;28;20052;-70
2024/01/03 16:29:48;;;;;;;0.55;0.30;;;;;;;11.68;70.36;98215.84;10419014;28;20045;-69
2024/01/03 16:34:49;;;;;;;2.72;0.20;;;;;;;11.53;70.44;98208.25;10420191;28;20048;-62
2024/01/03 16:39:51;;;;;;;5.55;0.20;;;;;;;11.07;72.22;98212.56;10412669;28;20127;-64
2024/01/03 16:44:52;;;;;;;2.08;0.30;;;;;;;10.86;73.45;98200.50;10429848;28;20160;-63
2024/01/03 16:49:54;;;;;;;6.47;0.30;;;;;;;10.81;73.26;98214.63;10421667;28;20075;-64
2024/01/03 16:54:56;;;;;;;2.55;0.30;;;;;;;10.69;73.92;98228.03;10411250;28;20053;-64
2024/01/03 17:00:01;;;;;;;5.70;0.50;;;;;;;10.47;74.48;98243.84;10434924;28;20620;-66
2024/01/03 17:05:02;;;;;;;3.70;0.57;;;;;;;10.27;75.45;98240.59;10423457;28;20056;-65
2024/01/03 17:10:04;;;;;;;2.53;0.90;;;;;;;10.17;76.40;98230.38;10436296;28;20049;-63
2024/01/03 17:15:08;;;;;;;1.70;0.30;;;;;;;10.13;76.32;98231.88;10432675;28;20053;-60
2024/01/03 17:20:10;;;;;;;5.22;0.28;;;;;;;10.00;77.43;98272.28;10413647;28;20376;-59
2024/01/03 17:25:12;;;;;;;5.80;0.50;;;;;;;9.92;77.87;98260.81;10404919;28;20044;-58
2024/01/03 17:30:14;;;;;;;1.67;0.28;;;;;;;9.69;78.53;98245.34;10426641;28;20087;-60
2024/01/03 17:35:17;;;;;;;1.48;0.38;;;;;;;9.36;79.31;98218.91;10424983;28;20057;-58
2024/01/03 17:40:19;;;;;;;4.15;0.20;;;;;;;9.53;78.45;98209.22;10422211;28;20099;-60
2024/01/03 17:45:20;;;;;;;3.47;0.50;;;;;;;9.58;78.21;98202.34;10417346;28;20048;-59
2024/01/03 17:50:22;;;;;;;0.20;0.00;;;;;;;9.44;78.44;98201.66;10404373;28;20132;-60
2024/01/03 17:55:23;;;;;;;1.75;0.10;;;;;;;9.44;78.57;98207.03;10421877;28;20052;-59
2024/01/03 18:00:24;;;;;;;1.73;0.30;;;;;;;9.38;78.58;98203.41;10419260;28;20040;-59
2024/01/03 18:05:26;;;;;;;3.78;0.20;;;;;;;9.41;79.03;98202.94;10423843;28;20053;-60
2024/01/03 18:10:27;;;;;;;2.63;0.30;;;;;;;9.41;79.06;98210.19;10421573;28;20147;-58
2024/01/03 18:15:31;;;;;;;2.28;0.20;;;;;;;9.41;79.06;98194.91;10409944;28;20037;-57
2024/01/03 18:20:32;;;;;;;0.70;0.20;;;;;;;9.32;79.31;98198.91;10427821;28;20037;-60
2024/01/03 18:25:35;;;;;;;3.47;0.30;;;;;;;9.27;79.78;98185.34;10427062;28;20608;-61
2024/01/03 18:30:36;;;;;;;0.40;0.20;;;;;;;9.33;79.83;98189.81;10430747;28;20036;-62
2024/01/03 18:35:38;;;;;;;2.30;0.30;;;;;;;9.30;79.65;98179.53;10422272;28;20148;-63
2024/01/03 18:40:39;;;;;;;4.57;0.40;;;;;;;9.37;79.57;98190.22;10425125;28;20038;-63
2024/01/03 18:45:41;;;;;;;1.08;0.25;;;;;;;9.33;79.96;98179.09;10423894;28;20131;-62
2024/01/03 18:50:45;;;;;;;1.33;0.20;;;;;;;9.25;80.32;98182.06;10426348;28;20060;-62
2024/01/03 18:55:47;;;;;;;1.65;0.20;;;;;;;9.23;80.38;98186.84;10423466;28;20034;-62
2024/01/03 19:00:50;;;;;;;2.20;0.28;;;;;;;9.27;80.28;98198.75;10429679;28;20141;-63
2024/01/03 19:05:52;;;;;;;4.22;0.40;;;;;;;9.23;80.58;98219.81;10422956;28;20049;-62
2024/01/03 19:10:53;;;;;;;3.97;0.30;;;;;;;9.28;80.67;98227.19;10425309;28;20040;-64
2024/01/03 19:15:59;;;;;;;1.70;0.43;;;;;;;9.36;80.42;98234.97;10420010;28;20048;-63
2024/01/03 19:21:00;;;;;;;1.63;0.20;;;;;;;9.36;80.51;98226.09;10423030;28;20046;-63
2024/01/03 19:26:02;;;;;;;5.10;0.25;;;;;;;9.36;80.79;98220.72;10433955;28;20053;-63
2024/01/03 19:31:04;;;;;;;2.63;0.47;;;;;;;9.31;81.15;98227.56;10432121;28;20140;-64
2024/01/03 19:36:06;;;;;;;6.63;1.20;;;;;;;9.38;81.21;98224.84;10429744;28;20585;-64
2024/01/03 19:41:07;;;;;;;2.53;0.20;;;;;;;9.34;81.35;98231.69;10424194;28;20038;-65
2024/01/03 19:46:09;;;;;;;2.17;0.25;;;;;;;9.30;81.48;98250.09;10424479;28;20487;-66
2024/01/03 19:51:18;;;;;;;0.75;0.20;;;;;;;9.40;81.46;98244.22;10396696;28;20052;-66
2024/01/03 19:56:20;;;;;;;0.50;0.17;;;;;;;9.44;81.46;98245.41;10415086;28;20051;-66
2024/01/03 20:01:21;;;;;;;1.15;0.30;;;;;;;9.47;81.41;98241.47;10417336;28;20049;-65
2024/01/03 20:06:23;;;;;;;0.50;0.20;;;;;;;9.44;81.53;98247.25;10402649;28;20472;-66
2024/01/03 20:11:25;;;;;;;1.60;0.30;;;;;;;9.42;81.25;98249.34;10406206;28;20124;-66
2024/01/03 20:16:27;;;;;;;1.58;0.20;;;;;;;9.47;81.59;98254.88;10417898;28;20459;-66
2024/01/03 20:21:28;;;;;;;0.25;0.20;;;;;;;9.48;81.42;98257.34;10405843;28;20034;-65
2024/01/03 20:26:29;;;;;;;3.75;0.20;;;;;;;9.54;81.58;98266.38;10418827;28;20111;-66
2024/01/03 20:31:31;;;;;;;3.13;0.32;;;;;;;9.53;81.13;98270.91;10415654;28;20041;-66
2024/01/03 20:36:32;;;;;;;4.72;0.20;;;;;;;9.55;81.44;98283.28;10415507;28;20044;-65
2024/01/03 20:41:34;;;;;;;8.65;0.40;;;;;;;9.59;81.17;98296.00;10426647;28;20056;-68
2024/01/03 20:46:35;;;;;;;2.55;0.22;;;;;;;9.69;80.95;98296.31;10438118;28;20052;-67
2024/01/03 20:51:37;;;;;;;0.95;0.20;;;;;;;9.72;80.53;98295.09;10440285;28;20045;-67
2024/01/03 20:56:41;;;;;;;0.75;0.25;;;;;;;9.71;80.62;98293.44;10445960;28;20107;-68
2024/01/03 21:01:49;;;;;;;2.92;0.15;;;;;;;9.70;80.76;98297.97;10456846;28;20037;-65
2024/01/03 21:06:50;;;;;;;3.85;0.55;;;;;;;9.80;80.89;98302.03;10447956;28;20040;-67
2024/01/03 21:11:57;;;;;;;3.08;0.40;;;;;;;9.83;80.54;98302.38;10455038;28;20040;-66
2024/01/03 21:16:59;;;;;;;1.50;0.47;;;;;;;9.89;80.39;98306.03;10421685;28;20044;-68
2024/01/03 21:22:00;;;;;;;1.30;0.10;;;;;;;10.00;80.34;98305.31;10437636;28;20697;-67
2024/01/03 21:27:02;;;;;;;2.88;0.20;;;;;;;10.07;79.74;98303.41;10443663;28;20044;-66
2024/01/03 21:32:24;;;;;;;1.67;0.17;;;;;;;10.13;79.66;98312.44;10457164;28;20042;-64
2024/01/03 21:37:25;;;;;;;3.22;0.65;;;;;;;10.19;79.85;98313.38;10434135;28;20044;-62
2024/01/03 21:42:27;;;;;;;0.95;0.20;;;;;;;10.21;79.90;98312.13;10443970;28;20087;-62
2024/01/03 21:47:28;;;;;;;1.42;0.30;;;;;;;10.30;79.76;98307.28;10442897;28;20074;-66
2024/01/03 21:52:30;;;;;;;1.63;0.20;;;;;;;10.37;79.52;98315.25;10460554;28;20041;-66
2024/01/03 21:57:32;;;;;;;2.92;0.20;;;;;;;10.44;79.63;98314.13;10460733;28;20045;-65
2024/01/03 22:02:33;;;;;;;3.55;0.20;;;;;;;10.38;79.54;98308.84;10446312;28;20057;-65
2024/01/03 22:07:34;;;;;;;0.75;0.35;;;;;;;10.41;79.22;98316.47;10462944;28;20038;-65
2024/01/03 22:12:36;;;;;;;0.60;0.32;;;;;;;10.44;79.50;98327.56;10460392;28;20113;-65
2024/01/03 22:17:37;;;;;;;2.05;0.38;;;;;;;10.49;79.02;98337.66;10458835;28;20125;-65
2024/01/03 22:22:40;;;;;;;1.08;0.22;;;;;;;10.33;79.24;98339.06;10455250;28;20037;-62
2024/01/03 22:27:42;;;;;;;1.88;0.15;;;;;;;10.23;79.22;98344.09;10447314;28;20108;-63
2024/01/03 22:32:44;;;;;;;0.40;0.15;;;;;;;10.10;79.60;98345.06;10449778;28;20048;-61
2024/01/03 22:37:46;;;;;;;0.40;0.10;;;;;;;10.02;79.81;98348.88;10451025;28;20053;-63
2024/01/03 22:42:47;;;;;;;1.02;0.20;;;;;;;9.95;79.40;98342.72;10452012;28;20072;-63
2024/01/03 22:47:51;;;;;;;4.43;0.20;;;;;;;9.89;79.64;98352.50;10450451;28;20048;-65
2024/01/03 22:52:54;;;;;;;1.52;0.03;;;;;;;9.83;79.74;98358.72;10449896;28;20052;-66
2024/01/03 22:57:55;;;;;;;2.60;0.20;;;;;;;9.73;79.70;98356.56;10413453;28;20453;-65
2024/01/03 23:02:57;;;;;;;0.70;0.20;;;;;;;9.67;79.72;98354.75;10419224;28;20539;-65
2024/01/03 23:07:58;;;;;;;3.08;0.15;;;;;;;9.63;79.50;98350.06;10422952;28;20704;-65
2024/01/03 23:13:00;;;;;;;0.50;0.35;;;;;;;9.60;79.53;98369.28;10410870;28;20136;-64
2024/01/03 23:18:01;;;;;;;1.30;0.10;;;;;;;9.64;79.85;98360.56;10406316;28;20046;-64
2024/01/03 23:23:03;;;;;;;0.93;0.28;;;;;;;9.75;79.71;98352.84;10407060;28;20129;-64
2024/01/03 23:28:11;;;;;;;0.50;0.10;;;;;;;9.79;79.70;98354.84;10416240;28;20049;-64